Flight Track Log - Related Links

Times and Time Zones

All times are in EDT time to prevent confusion due to time zone crossing. See the EJA831 flight status page for this flight to view local times or setup timezone preferences in your user account.

Time Position Orientation Groundspeed Altitude Reporting Facility
EDT Latitude Longitude Course Direction KTS MPH feet Rate Location/Type
Wed 10:09:20 AM 41.1000 -73.7667 252° West 178 205 2,500  Level New York TRACON
Wed 10:10:14 AM 41.0833 -73.8333 252° West 204 235 4,800 2,750 Climbing New York TRACON
Wed 10:11:20 AM 41.0667 -73.9167 255° West 231 266 8,000 2,476 Climbing New York TRACON
Wed 10:12:20 AM 41.0500 -74.0000 255° West 262 302 10,000 1,000 Climbing New York TRACON
Wed 10:13:20 AM 41.0167 -74.1000 246° West 311 358 10,000 1,567 Level New York TRACON
Wed 10:14:57 AM 40.9108 -74.2361 244° Southwest 330 380 14,100 2,610 Climbing New York Center
Wed 10:15:00 AM 40.9561 -74.2048 244° Southwest  Level Estimated
Wed 10:15:54 AM 40.8661 -74.3328 239° Southwest 324 373 16,700  Level New York Center
Wed 10:16:55 AM 40.8214 -74.4372 241° Southwest 318 366 17,000 149 Climbing New York Center
Wed 10:17:55 AM 40.7719 -74.5469 239° Southwest 337 388 17,000 150 Level New York Center
Wed 10:18:55 AM 40.7247 -74.6594 241° Southwest 349 402 17,300 1,339 Climbing New York Center
Wed 10:19:56 AM 40.6756 -74.7606 237° Southwest 344 396 19,700 2,380 Climbing New York Center
Wed 10:20:56 AM 40.6344 -74.8619 242° Southwest 339 390 22,100 2,492 Climbing New York Center
Wed 10:21:54 AM 40.5894 -74.9606 239° Southwest 326 375 24,600 2,118 Climbing New York Center
Wed 10:22:55 AM 40.5444 -75.0533 237° Southwest 318 366 26,300 1,388 Climbing New York Center
Wed 10:23:55 AM 40.4933 -75.1403 232° Southwest 313 360 27,400 1,050 Climbing New York Center
Wed 10:24:55 AM 40.4381 -75.2239 229° Southwest 313 360 28,400 793 Climbing New York Center
Wed 10:25:56 AM 40.3847 -75.3078 230° Southwest 307 353 29,000 595 Climbing New York Center
Wed 10:26:56 AM 40.3292 -75.3994 232° Southwest 312 359 29,600 600 Climbing New York Center
Wed 10:27:56 AM 40.2781 -75.4803 230° Southwest 317 365 30,200 763 Climbing New York Center
Wed 10:28:54 AM 40.2222 -75.5717 231° Southwest 322 371 31,100 1,059 Climbing New York Center
Wed 10:29:55 AM 40.1700 -75.6714 236° Southwest 329 379 32,300 1,200 Climbing New York Center
Wed 10:30:54 AM 40.1178 -75.7733 236° Southwest 340 391 33,500 1,210 Climbing New York Center
Wed 10:31:54 AM 40.0678 -75.8758 238° Southwest 340 391 34,700 1,200 Climbing New York Center
Wed 10:32:54 AM 40.0175 -75.9750 237° Southwest 340 391 35,900 1,200 Climbing New York Center
Wed 10:33:54 AM 39.9550 -76.0678 229° Southwest 340 391 37,100 1,190 Climbing New York Center
Wed 10:34:55 AM 39.8944 -76.1581 229° Southwest 345 397 38,300 1,186 Climbing New York Center
Wed 10:36:51 AM 39.7656 -76.3367 227° Southwest 344 396 40,600 949 Climbing Washington Center
Wed 10:37:52 AM 39.7003 -76.4247 226° Southwest 344 396 41,100 508 Climbing Washington Center
Wed 10:38:49 AM 39.6331 -76.5183 227° Southwest 344 396 41,600 508 Climbing Washington Center
Wed 10:39:50 AM 39.5697 -76.6011 225° Southwest 350 403 42,100 496 Climbing Washington Center
Wed 10:40:50 AM 39.5022 -76.6969 228° Southwest 356 410 42,600 450 Climbing Washington Center
Wed 10:41:50 AM 39.4369 -76.7872 227° Southwest 356 410 43,000 197 Climbing Washington Center
Wed 10:42:52 AM 39.3669 -76.8856 227° Southwest 363 418 43,000  Level Washington Center
Wed 10:43:49 AM 39.2950 -76.9833 226° Southwest 369 425 43,000  Level Washington Center
Wed 10:44:50 AM 39.2231 -77.0811 226° Southwest 374 430 43,000  Level Washington Center
Wed 10:45:51 AM 39.1531 -77.1761 226° Southwest 374 430 43,000  Level Washington Center
Wed 10:46:49 AM 39.0808 -77.2736 226° Southwest 369 425 43,000  Level Washington Center
Wed 10:47:49 AM 39.0128 -77.3656 226° Southwest 369 425 43,000  Level Washington Center
Wed 10:48:50 AM 38.9428 -77.4572 226° Southwest 369 425 43,000  Level Washington Center
Wed 10:49:50 AM 38.8725 -77.5542 227° Southwest 375 432 43,000  Level Washington Center
Wed 10:50:51 AM 38.8000 -77.6428 224° Southwest 375 432 43,000  Level Washington Center
Wed 10:51:51 AM 38.7253 -77.7497 228° Southwest 375 432 43,000  Level Washington Center
Wed 10:52:50 AM 38.6547 -77.8433 226° Southwest 369 425 43,000  Level Washington Center
Wed 10:53:50 AM 38.5944 -77.9425 232° Southwest 364 419 43,000  Level Washington Center
Wed 10:54:51 AM 38.5361 -78.0442 234° Southwest 359 413 43,000  Level Washington Center
Wed 10:55:49 AM 38.4756 -78.1456 233° Southwest 359 413 43,000  Level Washington Center
Wed 10:56:50 AM 38.4150 -78.2494 233° Southwest 365 420 43,000  Level Washington Center
Wed 10:57:51 AM 38.3542 -78.3533 233° Southwest 365 420 43,000  Level Washington Center
Wed 10:58:51 AM 38.2914 -78.4567 232° Southwest 365 420 43,000  Level Washington Center
Wed 10:59:51 AM 38.2431 -78.5500 237° Southwest 370 426 43,000  Level Washington Center
Wed 11:00:50 AM 38.1931 -78.6325 232° Southwest 365 420 43,000  Level Washington Center
Wed 11:01:51 AM 38.1103 -78.7692 232° Southwest 374 430 43,000  Level Washington Center
Wed 11:02:52 AM 38.0469 -78.8747 233° Southwest 379 436 43,000  Level Washington Center
Wed 11:03:49 AM 37.9836 -78.9800 233° Southwest 379 436 43,000  Level Washington Center
Wed 11:04:50 AM 37.9203 -79.0822 232° Southwest 379 436 43,000  Level Washington Center
Wed 11:05:51 AM 37.8692 -79.1825 237° Southwest 379 436 43,000  Level Washington Center
Wed 11:06:51 AM 37.8139 -79.2931 238° Southwest 379 436 43,000  Level Washington Center
Wed 11:07:49 AM 37.7581 -79.4083 239° Southwest 379 436 43,000 -305 Level Washington Center
Wed 11:08:49 AM 37.6936 -79.5311 236° Southwest 389 448 42,400 -793 Descending Washington Center
Wed 11:09:50 AM 37.6422 -79.6308 237° Southwest 384 442 41,400 -1,082 Descending Washington Center
Wed 11:10:51 AM 37.5817 -79.7533 238° Southwest 379 436 40,200 -1,109 Descending Washington Center
Wed 11:11:49 AM 37.5300 -79.8581 238° Southwest 385 443 39,200 -1,017 Descending Washington Center
Wed 11:12:49 AM 37.4761 -79.9622 237° Southwest 385 443 38,200 -1,140 Descending Washington Center
Wed 11:13:50 AM 37.4133 -80.0814 236° Southwest 375 432 36,900 -1,190 Descending Washington Center
Wed 11:14:50 AM 37.3569 -80.1931 238° Southwest 381 438 35,800 -716 Descending Washington Center
Wed 11:17:53 AM 37.1742 -80.5408 237° Southwest 396 456 34,000 -444 Descending Atlanta Center
Wed 11:18:53 AM 37.1169 -80.6550 238° Southwest 388 447 34,000  Level Atlanta Center
Wed 11:19:53 AM 37.0444 -80.7569 228° Southwest 393 452 34,000  Level Atlanta Center
Wed 11:20:53 AM 36.9550 -80.8386 216° Southwest 404 465 34,000  Level Atlanta Center
Wed 11:21:53 AM 36.8736 -80.9147 217° Southwest 404 465 34,000  Level Atlanta Center
Wed 11:22:53 AM 36.7819 -81.0011 217° Southwest 414 476 34,000 -800 Level Atlanta Center
Wed 11:23:53 AM 36.6942 -81.0822 217° Southwest 403 464 32,400 -1,800 Descending Atlanta Center
Wed 11:24:53 AM 36.6003 -81.1711 217° Southwest 403 464 30,400 -1,800 Descending Atlanta Center
Wed 11:25:53 AM 36.5128 -81.2567 218° Southwest 403 464 28,800 -1,600 Descending Atlanta Center
Wed 11:26:53 AM 36.4247 -81.3372 216° Southwest 403 464 27,200 -1,600 Descending Atlanta Center
Wed 11:27:53 AM 36.3369 -81.4200 217° Southwest 408 470 25,600 -1,600 Descending Atlanta Center
Wed 11:28:53 AM 36.2489 -81.5028 217° Southwest 403 464 24,000 -800 Descending Atlanta Center
Wed 11:29:53 AM 36.1631 -81.5825 217° Southwest 398 458 24,000 -500 Level Atlanta Center
Wed 11:30:53 AM 36.0789 -81.6597 217° Southwest 398 458 23,000 -1,250 Descending Atlanta Center
Wed 11:31:53 AM 35.9950 -81.7367 217° Southwest 388 447 21,500 -1,450 Descending Atlanta Center
Wed 11:32:53 AM 35.9108 -81.8133 216° Southwest 382 440 20,100 -1,650 Descending Atlanta Center
Wed 11:33:53 AM 35.8286 -81.8872 216° Southwest 377 434 18,200 -1,850 Descending Atlanta Center
Wed 11:34:53 AM 35.7547 -81.9583 218° Southwest 360 414 16,400 -1,650 Descending Atlanta Center
Wed 11:35:53 AM 35.6936 -82.0417 228° Southwest 360 414 14,900 -1,800 Descending Atlanta Center
Wed 11:36:53 AM 35.6808 -82.1494 262° West 316 364 12,800 -1,850 Descending Atlanta Center
Wed 11:37:53 AM 35.6675 -82.2442 260° West 316 364 11,200 -1,700 Descending Atlanta Center
Wed 11:38:53 AM 35.6250 -82.3244 237° Southwest 304 350 9,400 -1,800 Descending Atlanta Center
Wed 11:39:53 AM 35.5481 -82.3414 190° South 257 296 7,600 -1,700 Descending Atlanta Center
Wed 11:40:53 AM 35.4731 -82.3633 193° South 268 308 6,000 -800 Descending Atlanta Center
Wed 11:41:53 AM 35.4067 -82.3850 195° South 264 304 6,000 -300 Level Atlanta Center
Wed 11:42:53 AM 35.3742 -82.4519 239° Southwest 223 257 5,400 -600 Descending Atlanta Center
Wed 11:44:00 AM 35.4333 -82.5333 238° Southwest  Level FlightAware Approximate
Wed 11:51:00 AM 35.4362 -82.5418 238° Southwest  Level Estimated
Wed 11:52:00 AM 35.4362 -82.5418 238° Southwest  Level Estimated
Wed 11:53:00 AM 35.4362 -82.5418 238° Southwest  Level Estimated
Wed 11:54:00 AM 35.4362 -82.5418 238° Southwest  Level Estimated

Login

Don't have an account? Register now (free) for customized features, flight alerts, and more!